WSSL

Details ICAO WSSL (XSP)
Name Seletar
Region Singapore
Timezone Asia/Singapore (UTC+8.0)
Plans Departing 64
Arriving 48
Stats Elevation 36 ft / 11 m (AMSL)
Location 1.416427° 103.867299°
Runways 1
Magnetic Variation 0.218° E
Sunrise 2017-12-16 23:00:42 UTC / 2017-12-17 07:00:42 Local
Sunset 2017-12-17 11:03:04 UTC / 2017-12-17 19:03:04 Local
Advertisement - Login to hide

Runways

ID Width Length Bearing (true) Bearing (mag) Surface Threshold Offset Overrun Length
03 151 ft / 46 m 5,243 ft / 1,598 m 33.15° 32.93° Asphalt 0 ft / 0 m 197 ft / 60 m
21 151 ft / 46 m 5,243 ft / 1,598 m 213.15° 212.93° Asphalt 0 ft / 0 m 197 ft / 60 m

Map

Weather


0- 5 10 15 20 25 30 35+ Temperature / ° C

Clouds and Precipitation
Forecast for 2017-12-17 00:00 UTC. Updated an hour ago

Ground ~20,000 ft ~40,000 ft Winds

METAR

WSSL 162000Z 35003KT 9999 FEW018 SCT160 BKN300 26/23 Q1011 RMK 1430Z Q1012

TAF

TAF WSSL 161700Z 1618/1800 02010KT 9999 FEW018CB SCT020 TEMPO 1705/1709 4500 SHRA FEW015CB BKN018

Frequencies

Ground 121.60 MHz GND
Tower 118.45 MHz TWR
Approach 124.60 MHz SINGAPORE APP/DEP
Tower 130.20 MHz TWR
Approach 120.30 MHz SINGAPORE APP/DEP
Warning: Do not use this data for real-world aviation or navigation. No guarantee of current accuracy is given.